Time;durP1;ratioP1;P1;durP2;ratioP2;P2;SDS_P1;SDS_P2;PMS_P1;PMS_P2;Temp;Humidity;BMP_temperature;BMP_pressure;BME280_temperature;BME280_humidity;BME280_pressure;Samples;Min_cycle;Max_cycle;Signal;HPM_P1;HPM_P2
2023/04/14 00:00:33;;;;;;;5.78;2.47;;;;;;;3.61;100.00;96469.19;5043513;28;20075;-57
2023/04/14 00:03:00;;;;;;;6.88;2.00;;;;;;;3.60;100.00;96467.56;5031786;28;20128;-56
2023/04/14 00:05:28;;;;;;;7.53;1.98;;;;;;;3.64;100.00;96460.72;5035001;28;20037;-56
2023/04/14 00:07:55;;;;;;;6.15;2.10;;;;;;;3.60;100.00;96464.91;5027555;28;20045;-58
2023/04/14 00:10:21;;;;;;;6.10;2.22;;;;;;;3.60;100.00;96454.19;5026891;28;20115;-55
2023/04/14 00:12:48;;;;;;;10.50;2.35;;;;;;;3.54;100.00;96451.63;5036918;28;20117;-58
2023/04/14 00:15:14;;;;;;;7.70;2.50;;;;;;;3.41;100.00;96447.25;5040426;28;20041;-57
2023/04/14 00:17:41;;;;;;;8.68;1.90;;;;;;;3.43;100.00;96447.88;5042571;28;20044;-56
2023/04/14 00:20:08;;;;;;;6.38;2.00;;;;;;;3.28;100.00;96441.06;5029443;28;20049;-59
2023/04/14 00:22:35;;;;;;;9.43;2.30;;;;;;;3.27;100.00;96442.13;5041113;28;20041;-58
2023/04/14 00:25:02;;;;;;;8.40;2.00;;;;;;;3.23;100.00;96435.59;5031203;28;20048;-58
2023/04/14 00:27:29;;;;;;;4.13;1.58;;;;;;;3.29;100.00;96440.03;5035727;28;20095;-58
2023/04/14 00:29:56;;;;;;;4.60;1.52;;;;;;;3.30;100.00;96438.16;5034658;28;20064;-56
2023/04/14 00:32:23;;;;;;;6.30;1.98;;;;;;;3.31;100.00;96442.50;5025295;28;20041;-58
2023/04/14 00:34:50;;;;;;;7.03;1.75;;;;;;;3.45;100.00;96448.44;5037792;28;20060;-58
2023/04/14 00:37:16;;;;;;;9.93;1.80;;;;;;;3.57;100.00;96451.97;5037223;28;20045;-58
2023/04/14 00:39:43;;;;;;;5.18;1.30;;;;;;;3.63;100.00;96451.06;5037511;28;20050;-58
2023/04/14 00:42:09;;;;;;;7.93;1.63;;;;;;;3.82;100.00;96444.78;5035612;28;20060;-57
2023/04/14 00:44:36;;;;;;;6.07;1.58;;;;;;;3.95;99.30;96446.44;5035472;28;20037;-58
2023/04/14 00:47:03;;;;;;;8.95;1.63;;;;;;;4.01;97.34;96449.00;5025527;28;20037;-56
2023/04/14 00:49:30;;;;;;;7.40;1.67;;;;;;;4.02;97.36;96447.94;5028950;28;20045;-59
2023/04/14 00:51:56;;;;;;;6.35;1.85;;;;;;;4.02;97.74;96447.16;5035379;28;20067;-58
2023/04/14 00:54:25;;;;;;;8.75;1.50;;;;;;;4.09;96.70;96445.16;5035896;28;20059;-56
2023/04/14 00:56:52;;;;;;;5.18;1.30;;;;;;;4.12;96.24;96442.00;5036900;28;20049;-59
2023/04/14 00:59:19;;;;;;;9.23;1.60;;;;;;;4.03;97.64;96451.44;5025914;28;20435;-59
2023/04/14 01:01:46;;;;;;;8.57;1.33;;;;;;;3.86;98.68;96457.47;5037828;28;20028;-58
2023/04/14 01:04:14;;;;;;;4.82;1.55;;;;;;;3.88;97.80;96458.06;5024156;28;20135;-57
2023/04/14 01:06:41;;;;;;;7.50;1.83;;;;;;;3.83;97.52;96457.94;5037092;28;20128;-58
2023/04/14 01:09:08;;;;;;;6.70;1.67;;;;;;;3.80;98.04;96457.59;5035124;28;20036;-57
2023/04/14 01:12:16;;;;;;;5.15;1.30;;;;;;;3.83;98.12;96467.84;5039752;28;20045;-58
2023/04/14 01:14:58;;;;;;;7.15;2.03;;;;;;;3.74;98.58;96462.84;5034419;28;20821;-58
2023/04/14 01:17:38;;;;;;;7.10;1.73;;;;;;;3.75;99.24;96464.47;5034181;28;20045;-58
2023/04/14 01:20:29;;;;;;;5.25;1.80;;;;;;;3.73;98.09;96465.75;5037301;28;20076;-59
2023/04/14 01:23:03;;;;;;;5.47;1.50;;;;;;;3.65;98.61;96464.22;5039373;28;20040;-58
2023/04/14 01:26:15;;;;;;;6.22;1.10;;;;;;;3.71;98.21;96465.97;5028166;28;20549;-56
2023/04/14 01:28:54;;;;;;;;;;;;;;;3.71;98.63;96470.50;5024399;28;20041;-58
2023/04/14 01:31:25;;;;;;;5.18;1.27;;;;;;;3.69;98.89;96475.28;5031893;28;19964;-58
2023/04/14 01:34:05;;;;;;;4.95;1.33;;;;;;;3.58;98.56;96479.56;5040343;28;20039;-58
2023/04/14 01:36:44;;;;;;;6.07;1.45;;;;;;;3.56;98.79;96490.50;5028058;28;20047;-58
2023/04/14 01:39:18;;;;;;;6.03;1.45;;;;;;;3.65;97.86;96480.28;5031713;28;20055;-59
2023/04/14 01:41:51;;;;;;;9.40;1.60;;;;;;;3.61;98.04;96471.06;5038954;28;20053;-58
2023/04/14 01:44:21;;;;;;;3.33;1.23;;;;;;;3.61;98.23;96473.75;5035157;28;20459;-58
2023/04/14 01:46:50;;;;;;;12.85;1.98;;;;;;;3.60;98.85;96475.59;5025274;28;20080;-58
2023/04/14 01:49:20;;;;;;;8.68;1.63;;;;;;;3.57;97.42;96477.94;5036466;28;20531;-58
2023/04/14 01:51:47;;;;;;;5.97;1.42;;;;;;;3.48;99.95;96485.47;5036994;28;20045;-58
2023/04/14 01:54:16;;;;;;;4.13;1.25;;;;;;;3.31;100.00;96479.94;5036130;28;20114;-57
2023/04/14 01:56:45;;;;;;;6.20;1.60;;;;;;;3.23;100.00;96489.09;5039165;28;20119;-59
2023/04/14 01:59:13;;;;;;;9.60;1.63;;;;;;;2.98;100.00;96482.81;5049352;28;20451;-58
2023/04/14 02:01:41;;;;;;;6.68;1.50;;;;;;;2.75;100.00;96483.50;5041030;28;20060;-58
2023/04/14 02:04:10;;;;;;;7.00;2.17;;;;;;;2.64;100.00;96487.75;5038822;28;20559;-58
2023/04/14 02:06:39;;;;;;;6.43;1.60;;;;;;;2.55;100.00;96486.41;5038967;28;20124;-58
2023/04/14 02:09:09;;;;;;;9.63;1.60;;;;;;;2.64;100.00;96486.94;5034304;28;20496;-58
2023/04/14 02:11:37;;;;;;;5.68;1.30;;;;;;;2.69;100.00;96489.78;5034447;28;20033;-58
2023/04/14 02:14:06;;;;;;;8.68;1.50;;;;;;;2.79;100.00;96479.34;5037486;28;20124;-58
2023/04/14 02:16:36;;;;;;;8.15;1.70;;;;;;;2.81;100.00;96484.47;5038958;28;20052;-59
2023/04/14 02:19:04;;;;;;;3.88;1.38;;;;;;;2.85;100.00;96483.00;5032653;28;20133;-59
2023/04/14 02:21:33;;;;;;;7.25;1.60;;;;;;;2.79;100.00;96479.34;5035176;28;20696;-58
2023/04/14 02:24:02;;;;;;;6.22;1.70;;;;;;;2.81;100.00;96487.16;5039875;28;20584;-56
2023/04/14 02:26:31;;;;;;;7.75;1.40;;;;;;;2.80;100.00;96483.66;5027845;28;20041;-58
2023/04/14 02:29:14;;;;;;;6.30;2.33;;;;;;;2.73;100.00;96485.63;5042342;28;20667;-58
2023/04/14 02:31:53;;;;;;;4.75;1.25;;;;;;;2.72;100.00;96483.97;5045334;28;20678;-57
2023/04/14 02:34:24;;;;;;;5.68;1.55;;;;;;;2.72;100.00;96479.44;5034344;28;20052;-59
2023/04/14 02:36:56;;;;;;;8.85;1.48;;;;;;;2.73;100.00;96481.06;5040147;28;20037;-59
2023/04/14 02:39:33;;;;;;;4.25;1.63;;;;;;;2.72;100.00;96479.44;5036176;28;20180;-58
2023/04/14 02:42:11;;;;;;;5.80;1.48;;;;;;;2.72;100.00;96483.97;5043819;28;20072;-59
2023/04/14 02:44:44;;;;;;;7.25;1.23;;;;;;;2.67;100.00;96494.50;5037514;28;20072;-59
2023/04/14 02:47:14;;;;;;;4.90;1.50;;;;;;;2.58;100.00;96491.34;5035051;28;20041;-56
2023/04/14 02:49:46;;;;;;;6.40;1.48;;;;;;;2.59;100.00;96495.63;5045030;28;20504;-58
2023/04/14 02:52:18;;;;;;;5.05;1.48;;;;;;;2.60;100.00;96499.94;5039514;28;20060;-58
2023/04/14 02:54:47;;;;;;;7.63;2.00;;;;;;;2.61;100.00;96501.56;5044108;28;20463;-59
2023/04/14 02:57:16;;;;;;;6.72;1.52;;;;;;;2.47;100.00;96491.00;5040185;28;20056;-57
2023/04/14 02:59:46;;;;;;;4.75;1.25;;;;;;;2.33;100.00;96500.22;5030466;28;20037;-57
2023/04/14 03:02:15;;;;;;;11.00;1.90;;;;;;;2.42;100.00;96504.22;5029209;28;20096;-59
2023/04/14 03:04:45;;;;;;;10.80;1.92;;;;;;;2.35;100.00;96500.78;5042932;28;20546;-58
2023/04/14 03:07:23;;;;;;;4.70;1.60;;;;;;;2.27;100.00;96506.41;5031980;28;20049;-58
2023/04/14 03:09:50;;;;;;;8.90;1.83;;;;;;;2.27;100.00;96512.59;5024422;28;20037;-58
2023/04/14 03:12:18;;;;;;;9.18;1.70;;;;;;;2.08;100.00;96509.06;5037943;28;20038;-58
2023/04/14 03:14:46;;;;;;;6.32;1.85;;;;;;;1.88;100.00;96507.34;5043637;28;20044;-59
2023/04/14 03:17:14;;;;;;;5.75;1.38;;;;;;;1.70;100.00;96510.81;5040789;28;20487;-56
2023/04/14 03:19:41;;;;;;;5.72;1.38;;;;;;;1.62;100.00;96509.19;5032117;28;20037;-58
2023/04/14 03:22:10;;;;;;;7.80;1.67;;;;;;;1.55;100.00;96508.44;5037448;28;20045;-57
2023/04/14 03:24:38;;;;;;;4.45;1.50;;;;;;;1.34;100.00;96510.41;5038250;28;20107;-58
2023/04/14 03:27:12;;;;;;;3.95;1.60;;;;;;;1.22;100.00;96507.56;5037663;28;20055;-58
2023/04/14 03:29:45;;;;;;;8.88;1.73;;;;;;;1.04;100.00;96509.09;5032012;28;20041;-57
2023/04/14 03:32:14;;;;;;;8.13;2.28;;;;;;;0.96;100.00;96512.00;5038048;28;20544;-57
2023/04/14 03:34:43;;;;;;;5.32;1.50;;;;;;;0.88;100.00;96515.75;5036209;28;20033;-60
2023/04/14 03:37:15;;;;;;;5.53;1.60;;;;;;;0.93;100.00;96516.97;5038672;28;20047;-59
2023/04/14 03:39:44;;;;;;;10.60;1.90;;;;;;;0.82;100.00;96516.59;5035396;28;20112;-59
2023/04/14 03:42:11;;;;;;;7.00;1.90;;;;;;;0.77;100.00;96511.06;5034548;28;20551;-59
2023/04/14 03:44:44;;;;;;;9.30;2.03;;;;;;;0.74;100.00;96514.97;5043036;28;20068;-60
2023/04/14 03:47:13;;;;;;;6.35;2.13;;;;;;;0.61;100.00;96515.84;5034759;28;20049;-60
2023/04/14 03:49:45;;;;;;;7.88;2.00;;;;;;;0.56;100.00;96513.00;5033116;28;20056;-58
2023/04/14 03:52:13;;;;;;;6.85;1.92;;;;;;;0.70;100.00;96511.09;5038767;28;20131;-60
2023/04/14 03:54:42;;;;;;;6.00;1.80;;;;;;;0.77;100.00;96509.22;5036756;28;20033;-58
2023/04/14 03:57:12;;;;;;;7.97;2.35;;;;;;;0.94;100.00;96505.25;5034815;28;20049;-58
2023/04/14 03:59:40;;;;;;;8.43;2.00;;;;;;;0.97;100.00;96510.19;5031231;28;20033;-59
2023/04/14 04:02:09;;;;;;;8.93;2.00;;;;;;;0.99;100.00;96505.47;5038966;28;20041;-58
2023/04/14 04:04:38;;;;;;;8.77;2.33;;;;;;;1.20;100.00;96503.50;5029615;28;20473;-59
2023/04/14 04:07:09;;;;;;;6.65;2.20;;;;;;;1.37;100.00;96509.16;5034861;28;20049;-59
2023/04/14 04:09:37;;;;;;;10.57;2.45;;;;;;;1.71;100.00;96504.41;5021292;28;20064;-59
2023/04/14 04:12:04;;;;;;;8.85;2.10;;;;;;;1.92;100.00;96510.44;5022226;28;20049;-59
2023/04/14 04:14:34;;;;;;;6.43;1.90;;;;;;;2.11;100.00;96508.63;5039099;28;20037;-59
2023/04/14 04:17:06;;;;;;;7.78;1.58;;;;;;;2.32;100.00;96509.28;5029719;28;20046;-58
2023/04/14 04:19:35;;;;;;;8.25;1.42;;;;;;;2.29;100.00;96518.50;5030170;28;20069;-60
2023/04/14 04:22:02;;;;;;;3.95;1.00;;;;;;;2.49;99.30;96522.03;5023005;28;20049;-58
2023/04/14 04:24:36;;;;;;;6.38;1.58;;;;;;;2.62;98.27;96518.41;5034526;28;20041;-60
2023/04/14 04:27:05;;;;;;;3.50;1.70;;;;;;;2.58;99.72;96518.84;5037267;28;20125;-58
2023/04/14 04:29:43;;;;;;;5.10;1.35;;;;;;;2.60;98.19;96516.78;5035210;28;20055;-60
2023/04/14 04:32:10;;;;;;;6.15;1.40;;;;;;;2.66;97.40;96515.09;5035828;28;20050;-58
2023/04/14 04:34:37;;;;;;;4.95;1.50;;;;;;;2.65;97.31;96507.28;5024957;28;20560;-60
2023/04/14 04:37:05;;;;;;;7.10;1.35;;;;;;;2.71;96.63;96512.56;5020886;28;20041;-59
2023/04/14 04:39:31;;;;;;;5.78;1.00;;;;;;;2.78;95.24;96509.81;5039532;28;20045;-60
2023/04/14 04:42:06;;;;;;;4.18;1.30;;;;;;;2.84;95.68;96518.81;5034558;28;20048;-60
2023/04/14 04:44:33;;;;;;;7.55;1.42;;;;;;;2.82;94.96;96513.69;5031471;28;20041;-57
2023/04/14 04:47:00;;;;;;;5.53;1.00;;;;;;;2.79;95.28;96511.44;5032275;28;20045;-59
2023/04/14 04:49:27;;;;;;;8.80;1.38;;;;;;;2.82;94.96;96513.69;5024327;28;20049;-59
2023/04/14 04:51:59;;;;;;;7.75;1.40;;;;;;;2.79;94.66;96521.31;5028072;28;20037;-58
2023/04/14 04:54:26;;;;;;;5.40;1.50;;;;;;;2.79;94.88;96524.81;5036303;28;20300;-56
2023/04/14 04:56:53;;;;;;;11.10;1.90;;;;;;;2.68;94.99;96513.00;5022203;28;20045;-58
2023/04/14 04:59:19;;;;;;;9.43;1.48;;;;;;;2.77;94.22;96518.88;5035724;28;20075;-57
2023/04/14 05:01:46;;;;;;;6.32;1.05;;;;;;;2.78;94.22;96515.16;5024646;28;20056;-58
2023/04/14 05:04:13;;;;;;;8.18;1.35;;;;;;;2.77;94.25;96520.72;5028166;28;20045;-59
2023/04/14 05:06:40;;;;;;;2.63;1.00;;;;;;;2.77;94.22;96523.41;5030924;28;20037;-57
2023/04/14 05:09:06;;;;;;;6.60;1.08;;;;;;;2.84;93.94;96530.28;5024575;28;20115;-58
2023/04/14 05:11:33;;;;;;;7.50;1.80;;;;;;;2.88;92.63;96517.31;5023365;28;20045;-59
2023/04/14 05:14:00;;;;;;;4.70;1.08;;;;;;;2.97;93.54;96525.84;5019258;28;20037;-59
2023/04/14 05:16:27;;;;;;;9.98;1.30;;;;;;;2.96;92.96;96529.56;5019782;28;20195;-60
2023/04/14 05:18:54;;;;;;;4.10;1.20;;;;;;;3.02;91.04;96525.97;5021168;28;20040;-58
2023/04/14 05:21:21;;;;;;;5.93;1.10;;;;;;;3.03;90.91;96522.28;5022153;28;20053;-59
2023/04/14 05:23:48;;;;;;;6.88;1.20;;;;;;;3.14;90.19;96527.91;5023901;28;20113;-60
2023/04/14 05:26:15;;;;;;;4.10;1.33;;;;;;;3.25;89.54;96532.50;5018200;28;20077;-58
2023/04/14 05:29:02;;;;;;;4.13;1.05;;;;;;;3.33;89.51;96523.34;5026145;28;20764;-59
2023/04/14 05:31:29;;;;;;;4.25;1.08;;;;;;;3.42;89.37;96526.53;5020837;28;20132;-58
2023/04/14 05:33:55;;;;;;;5.53;1.00;;;;;;;3.57;88.83;96526.13;5018677;28;20540;-59
2023/04/14 05:36:22;;;;;;;6.07;1.20;;;;;;;3.70;88.31;96525.91;5023466;28;20042;-59
2023/04/14 05:38:48;;;;;;;5.90;1.23;;;;;;;3.80;87.25;96529.91;5023389;28;20133;-59
2023/04/14 05:41:15;;;;;;;5.82;1.20;;;;;;;3.92;86.76;96525.38;5023134;28;20069;-60
2023/04/14 05:43:41;;;;;;;5.35;1.85;;;;;;;4.05;85.92;96528.91;5024256;28;20111;-58
2023/04/14 05:46:08;;;;;;;7.95;1.20;;;;;;;4.19;84.64;96530.31;5018502;28;20718;-60
2023/04/14 05:48:36;;;;;;;5.55;1.40;;;;;;;4.27;84.66;96534.50;5024390;28;20041;-59
2023/04/14 05:51:03;;;;;;;2.20;0.77;;;;;;;4.36;84.55;96526.94;5027796;28;20073;-58
2023/04/14 05:53:30;;;;;;;6.10;1.00;;;;;;;4.47;83.43;96536.03;5025218;28;20037;-59
2023/04/14 05:55:56;;;;;;;4.90;1.35;;;;;;;4.55;83.17;96538.38;5023729;28;20065;-59
2023/04/14 05:58:25;;;;;;;2.03;0.70;;;;;;;4.61;83.68;96542.78;5026003;28;20119;-59
2023/04/14 06:00:51;;;;;;;7.63;1.30;;;;;;;4.67;82.75;96541.03;5033645;28;20086;-59
2023/04/14 06:03:18;;;;;;;2.30;0.85;;;;;;;4.78;81.72;96544.75;5025745;28;20553;-59
2023/04/14 06:05:47;;;;;;;6.22;1.23;;;;;;;4.86;81.85;96540.91;5026974;28;20037;-59
2023/04/14 06:08:13;;;;;;;5.57;1.42;;;;;;;4.95;82.13;96542.19;5030486;28;20045;-59
2023/04/14 06:10:40;;;;;;;2.58;0.90;;;;;;;5.01;82.30;96543.09;5031077;28;20045;-59
2023/04/14 06:13:07;;;;;;;3.08;0.80;;;;;;;5.10;81.23;96552.41;5038438;28;20547;-59
2023/04/14 06:15:34;;;;;;;5.25;1.38;;;;;;;5.18;80.84;96548.53;5029225;28;20048;-59
2023/04/14 06:18:00;;;;;;;2.92;0.90;;;;;;;5.27;80.78;96547.09;5030589;28;20072;-58
2023/04/14 06:20:27;;;;;;;3.15;1.15;;;;;;;5.33;81.96;96548.84;5040151;28;20136;-58
2023/04/14 06:22:56;;;;;;;7.80;1.40;;;;;;;5.40;81.26;96555.94;5029798;28;20148;-59
2023/04/14 06:25:23;;;;;;;5.50;1.27;;;;;;;5.43;80.76;96550.09;5026108;28;20095;-59
2023/04/14 06:27:49;;;;;;;5.60;1.30;;;;;;;5.50;81.72;96548.09;5032239;28;20086;-58
2023/04/14 06:30:16;;;;;;;3.42;1.00;;;;;;;5.56;80.95;96548.97;5042553;28;20453;-59
2023/04/14 06:32:42;;;;;;;7.20;1.17;;;;;;;5.62;82.10;96548.03;5045359;28;20548;-59
2023/04/14 06:35:09;;;;;;;2.78;1.38;;;;;;;5.71;80.53;96548.44;5032959;28;20041;-57
2023/04/14 06:37:51;;;;;;;;;;;;;;;5.77;79.91;96547.50;5033573;28;20041;-60
2023/04/14 06:40:17;;;;;;;4.15;0.90;;;;;;;5.88;78.54;96551.19;5039165;28;19948;-59
2023/04/14 06:42:44;;;;;;;3.13;0.68;;;;;;;5.93;76.86;96547.78;5034813;28;20476;-59
2023/04/14 06:45:10;;;;;;;3.03;0.90;;;;;;;6.02;78.16;96543.63;5035754;28;20444;-58
2023/04/14 06:47:37;;;;;;;1.45;0.60;;;;;;;6.10;77.51;96540.56;5033838;28;20064;-59
2023/04/14 06:50:04;;;;;;;6.80;1.35;;;;;;;6.20;77.89;96541.78;5035793;28;20052;-59
2023/04/14 06:52:31;;;;;;;5.95;1.10;;;;;;;6.27;77.09;96536.25;5032751;28;20045;-58
2023/04/14 06:54:57;;;;;;;3.85;1.25;;;;;;;6.34;77.20;96548.47;5026872;28;20642;-58
2023/04/14 06:57:25;;;;;;;10.48;1.25;;;;;;;6.38;76.08;96538.84;5029216;28;20051;-59
2023/04/14 06:59:51;;;;;;;6.32;2.03;;;;;;;6.47;76.28;96538.44;5024615;28;20133;-55
2023/04/14 07:02:18;;;;;;;4.53;1.10;;;;;;;6.57;76.64;96538.59;5026522;28;20702;-52
2023/04/14 07:04:44;;;;;;;9.10;0.90;;;;;;;7.08;76.32;96539.53;5010835;28;20043;-52
2023/04/14 07:07:13;;;;;;;2.65;0.75;;;;;;;7.18;73.57;96530.78;5024719;28;20041;-52
2023/04/14 07:09:42;;;;;;;3.85;0.93;;;;;;;7.66;75.66;96533.72;5032076;28;20077;-54
2023/04/14 07:12:13;;;;;;;6.28;1.08;;;;;;;7.78;73.88;96529.00;5029826;28;20091;-53
2023/04/14 07:14:40;;;;;;;6.97;1.53;;;;;;;7.63;72.65;96524.25;5033610;28;20128;-54
2023/04/14 07:17:06;;;;;;;2.28;0.98;;;;;;;7.43;71.07;96524.88;5031710;28;20049;-54
2023/04/14 07:19:33;;;;;;;9.07;1.25;;;;;;;7.42;71.61;96524.03;5034242;28;20041;-52
2023/04/14 07:21:59;;;;;;;7.88;1.30;;;;;;;7.35;71.16;96519.94;5032992;28;20052;-53
2023/04/14 07:24:26;;;;;;;3.55;0.88;;;;;;;7.68;73.68;96520.81;5028788;28;20099;-48
2023/04/14 07:26:52;;;;;;;4.65;1.55;;;;;;;7.90;70.47;96523.47;5032801;28;20091;-51
2023/04/14 07:29:19;;;;;;;3.97;1.10;;;;;;;7.63;70.33;96520.78;5032139;28;20044;-51
2023/04/14 07:31:45;;;;;;;6.80;1.30;;;;;;;7.66;72.52;96514.84;5035580;28;20045;-47
2023/04/14 07:34:12;;;;;;;6.10;1.67;;;;;;;7.91;71.08;96524.25;5024440;28;20671;-60
2023/04/14 07:36:38;;;;;;;5.45;1.17;;;;;;;7.49;70.27;96517.66;5030586;28;20073;-60
2023/04/14 07:39:05;;;;;;;1.83;0.73;;;;;;;7.61;71.99;96518.34;5022007;28;20037;-58
2023/04/14 07:41:32;;;;;;;5.40;0.93;;;;;;;7.70;71.09;96524.06;5036880;28;20045;-61
2023/04/14 07:43:58;;;;;;;5.05;0.90;;;;;;;7.78;71.12;96522.81;5026133;28;20500;-61
2023/04/14 07:46:26;;;;;;;3.50;1.00;;;;;;;7.62;70.63;96519.13;5020044;28;20049;-61
2023/04/14 07:48:53;;;;;;;6.07;1.17;;;;;;;7.59;71.41;96514.25;5026531;28;20512;-60
2023/04/14 07:51:19;;;;;;;7.43;1.25;;;;;;;7.60;70.91;96515.88;5031321;28;20076;-61
2023/04/14 07:53:46;;;;;;;3.53;1.20;;;;;;;7.55;70.92;96519.31;5023299;28;20132;-59
2023/04/14 07:56:13;;;;;;;6.78;1.52;;;;;;;7.57;72.01;96514.50;5022964;28;20544;-59
2023/04/14 07:58:40;;;;;;;2.42;0.77;;;;;;;7.51;70.50;96510.94;5025386;28;20053;-60
2023/04/14 08:01:06;;;;;;;5.82;1.13;;;;;;;7.61;70.36;96514.81;5023945;28;20041;-59
2023/04/14 08:03:35;;;;;;;7.57;1.00;;;;;;;7.69;70.51;96508.97;5024354;28;20033;-57
2023/04/14 08:06:04;;;;;;;7.32;1.42;;;;;;;7.64;69.16;96512.44;5026081;28;20033;-61
2023/04/14 08:08:31;;;;;;;6.18;1.67;;;;;;;7.81;72.16;96516.88;5024418;28;20068;-60
2023/04/14 08:10:58;;;;;;;7.85;1.20;;;;;;;7.90;71.70;96523.47;5032423;28;20065;-60
2023/04/14 08:13:24;;;;;;;5.65;1.23;;;;;;;7.71;68.85;96523.00;5029217;28;20056;-59
2023/04/14 08:15:51;;;;;;;3.10;0.80;;;;;;;7.75;69.62;96523.31;5019636;28;20163;-60
2023/04/14 08:18:17;;;;;;;3.60;0.95;;;;;;;7.81;69.41;96525.78;5024086;28;20055;-61
2023/04/14 08:20:44;;;;;;;2.85;0.90;;;;;;;7.81;69.35;96515.00;5018861;28;20037;-61
2023/04/14 08:23:11;;;;;;;6.00;0.82;;;;;;;7.95;71.73;96519.97;5024078;28;20136;-61
2023/04/14 08:25:37;;;;;;;4.80;0.88;;;;;;;8.11;71.72;96523.63;5024584;28;20061;-61
2023/04/14 08:28:04;;;;;;;6.15;1.25;;;;;;;7.99;69.84;96521.09;5024078;28;20044;-60
2023/04/14 08:30:31;;;;;;;5.43;1.10;;;;;;;7.98;69.88;96524.03;5023174;28;20041;-59
2023/04/14 08:32:57;;;;;;;5.95;1.30;;;;;;;8.10;69.95;96522.00;5024387;28;20072;-59
2023/04/14 08:35:25;;;;;;;2.85;0.98;;;;;;;8.17;70.55;96528.00;5023768;28;20045;-61
2023/04/14 08:38:07;;;;;;;3.28;0.82;;;;;;;8.11;65.45;96520.91;5023613;28;20079;-61
2023/04/14 08:40:39;;;;;;;5.80;1.38;;;;;;;7.99;68.79;96513.00;5029610;28;20056;-59
2023/04/14 08:43:06;;;;;;;3.28;0.95;;;;;;;8.08;68.49;96521.47;5017684;28;20041;-61
2023/04/14 08:45:33;;;;;;;7.63;1.27;;;;;;;8.20;68.51;96523.97;5017572;28;20525;-58
2023/04/14 08:48:03;;;;;;;5.00;1.15;;;;;;;8.31;68.60;96514.91;5014347;28;20056;-59
2023/04/14 08:50:41;;;;;;;4.70;0.98;;;;;;;8.46;69.02;96519.59;5021520;28;20099;-60
2023/04/14 08:53:09;;;;;;;4.13;1.23;;;;;;;8.54;68.62;96517.50;5023276;28;20041;-59
2023/04/14 08:55:40;;;;;;;6.22;1.17;;;;;;;8.64;65.31;96520.28;5016089;28;20037;-57
2023/04/14 08:58:09;;;;;;;3.77;0.90;;;;;;;8.68;64.67;96518.69;5025988;28;20045;-59
2023/04/14 09:00:37;;;;;;;7.35;0.98;;;;;;;8.59;63.65;96518.34;5028430;28;20320;-58
2023/04/14 09:03:04;;;;;;;8.88;1.30;;;;;;;8.69;64.48;96514.91;5024227;28;20046;-59
2023/04/14 09:05:31;;;;;;;4.93;1.23;;;;;;;8.74;64.59;96516.00;5025819;28;20042;-57
2023/04/14 09:07:58;;;;;;;5.78;1.02;;;;;;;8.79;65.71;96513.31;5020157;28;20151;-60
2023/04/14 09:10:24;;;;;;;5.55;1.40;;;;;;;8.91;66.11;96513.94;5020751;28;20052;-58
2023/04/14 09:12:52;;;;;;;6.40;1.23;;;;;;;8.97;65.05;96514.78;5022337;28;20095;-59
2023/04/14 09:15:20;;;;;;;5.07;1.25;;;;;;;9.10;66.75;96510.75;5021022;28;20060;-60
2023/04/14 09:17:46;;;;;;;4.43;1.00;;;;;;;9.00;60.79;96508.84;5020515;28;20097;-59
2023/04/14 09:20:13;;;;;;;5.13;1.40;;;;;;;9.13;64.05;96510.25;5021535;28;20396;-59
2023/04/14 09:23:00;;;;;;;3.88;1.05;;;;;;;9.10;60.94;96510.75;5017574;28;20045;-60
2023/04/14 09:25:26;;;;;;;2.50;0.88;;;;;;;8.97;61.72;96512.91;5023476;28;20589;-59
2023/04/14 09:27:53;;;;;;;4.38;1.23;;;;;;;8.56;63.17;96512.66;5023796;28;20041;-60
2023/04/14 09:30:19;;;;;;;6.05;1.75;;;;;;;8.49;63.67;96518.25;5017642;28;20065;-60
2023/04/14 09:32:52;;;;;;;3.45;1.17;;;;;;;8.46;62.33;96519.59;5023382;28;20053;-61
2023/04/14 09:35:19;;;;;;;6.05;1.40;;;;;;;8.54;61.80;96517.50;5018309;28;20038;-58
2023/04/14 09:37:46;;;;;;;4.13;1.35;;;;;;;8.59;61.96;96522.94;5022977;28;20040;-59
2023/04/14 09:40:29;;;;;;;5.60;1.27;;;;;;;8.79;60.56;96524.94;5010607;28;20045;-59
2023/04/14 09:42:56;;;;;;;4.78;0.90;;;;;;;8.95;57.92;96523.13;5016300;28;20532;-60
2023/04/14 09:45:49;;;;;;;4.25;0.90;;;;;;;9.01;57.74;96518.56;5016143;28;20125;-59
2023/04/14 09:48:16;;;;;;;6.50;1.15;;;;;;;9.03;56.82;96519.13;5018293;28;20076;-58
2023/04/14 09:50:57;;;;;;;1.83;0.77;;;;;;;9.14;54.66;96517.25;5022192;28;20096;-59
2023/04/14 09:53:28;;;;;;;3.38;1.38;;;;;;;9.26;55.57;96518.94;5014250;28;20030;-59
2023/04/14 09:55:58;;;;;;;7.03;1.27;;;;;;;9.35;54.10;96517.34;5010101;28;20037;-59
2023/04/14 09:58:29;;;;;;;4.43;0.70;;;;;;;9.44;52.87;96515.75;5025319;28;20444;-59
2023/04/14 10:00:58;;;;;;;;;;;;;;;9.54;52.36;96509.56;5017284;28;20070;-59
2023/04/14 10:03:38;;;;;;;2.88;0.80;;;;;;;9.47;53.41;96509.03;5019306;28;19956;-59
2023/04/14 10:06:23;;;;;;;2.38;0.90;;;;;;;9.33;53.27;96523.00;5021701;28;20052;-60
2023/04/14 10:08:52;;;;;;;4.07;1.02;;;;;;;9.10;53.59;96513.47;5015217;28;20444;-60
2023/04/14 10:11:28;;;;;;;2.22;0.95;;;;;;;9.02;55.39;96508.56;5021736;28;20583;-59
2023/04/14 10:14:01;;;;;;;5.45;0.95;;;;;;;9.19;54.06;96506.50;5022500;28;20067;-59
2023/04/14 10:16:28;;;;;;;7.40;1.55;;;;;;;9.39;54.58;96506.84;5021901;28;20056;-59
2023/04/14 10:18:58;;;;;;;2.05;0.80;;;;;;;9.36;53.58;96497.34;5015464;28;20045;-59
2023/04/14 10:21:26;;;;;;;3.92;1.20;;;;;;;9.51;51.27;96493.88;5009655;28;20123;-59
2023/04/14 10:23:55;;;;;;;7.47;1.20;;;;;;;9.53;52.72;96490.91;5020072;28;20124;-59
2023/04/14 10:26:22;;;;;;;7.00;1.17;;;;;;;9.59;52.37;96500.69;5015907;28;20080;-59
2023/04/14 10:28:51;;;;;;;4.22;1.15;;;;;;;9.59;51.83;96485.25;5017362;28;20076;-59
2023/04/14 10:31:37;;;;;;;4.55;1.17;;;;;;;9.85;52.95;96487.19;5020308;28;20122;-58
2023/04/14 10:34:09;;;;;;;4.35;1.08;;;;;;;9.91;50.28;96486.09;5018812;28;20076;-59
2023/04/14 10:36:37;;;;;;;5.50;1.20;;;;;;;9.53;51.26;96482.81;5006388;28;20034;-59
2023/04/14 10:39:05;;;;;;;4.28;1.10;;;;;;;9.61;53.71;96476.88;5018054;28;20038;-58
2023/04/14 10:41:47;;;;;;;3.35;0.95;;;;;;;9.94;53.31;96472.06;5026445;28;20054;-58
2023/04/14 10:44:26;;;;;;;5.10;1.13;;;;;;;10.26;51.94;96470.97;5013916;28;20046;-57
2023/04/14 10:46:55;;;;;;;4.35;0.93;;;;;;;10.12;51.66;96475.28;5025816;28;20601;-59
2023/04/14 10:49:35;;;;;;;3.60;1.00;;;;;;;10.16;50.71;96473.66;5024622;28;20042;-58
2023/04/14 10:52:25;;;;;;;4.43;0.90;;;;;;;10.28;51.98;96459.84;5023400;28;20049;-57
2023/04/14 10:55:08;;;;;;;4.45;1.30;;;;;;;10.46;50.64;96458.50;5018237;28;20125;-57
2023/04/14 10:57:43;;;;;;;4.90;1.05;;;;;;;10.61;50.60;96459.59;5017636;28;20050;-60
2023/04/14 11:00:26;;;;;;;4.70;1.27;;;;;;;10.70;49.02;96457.94;5022060;28;20079;-60
2023/04/14 11:03:09;;;;;;;6.55;1.10;;;;;;;10.49;50.47;96452.56;5020945;28;20060;-59
2023/04/14 11:05:56;;;;;;;3.80;0.90;;;;;;;10.40;48.67;96452.25;5020909;28;20076;-58
2023/04/14 11:08:26;;;;;;;3.80;1.00;;;;;;;10.26;49.43;96446.63;5019413;28;20116;-58
2023/04/14 11:11:03;;;;;;;4.97;1.45;;;;;;;10.34;50.33;96447.13;5023957;28;20053;-59
2023/04/14 11:13:32;;;;;;;3.47;0.80;;;;;;;10.48;51.55;96444.72;5023483;28;20659;-60
2023/04/14 11:16:01;;;;;;;5.20;1.02;;;;;;;10.58;50.49;96439.25;5023375;28;20497;-59
2023/04/14 11:18:27;;;;;;;4.25;1.20;;;;;;;10.64;50.71;96440.06;5006894;28;20483;-60
2023/04/14 11:21:15;;;;;;;2.60;0.82;;;;;;;10.59;49.87;96427.38;5018586;28;20107;-59
2023/04/14 11:23:42;;;;;;;3.35;0.90;;;;;;;10.57;48.78;96424.09;5025038;28;20520;-60
2023/04/14 11:26:11;;;;;;;4.57;1.10;;;;;;;10.70;49.22;96420.03;5026500;28;20033;-60
2023/04/14 11:28:40;;;;;;;5.45;1.17;;;;;;;10.89;47.96;96432.94;5017557;28;20075;-59
2023/04/14 11:31:09;;;;;;;3.95;0.90;;;;;;;10.79;46.92;96421.06;5022855;28;20439;-59
2023/04/14 11:33:37;;;;;;;4.57;1.20;;;;;;;10.89;48.31;96424.81;5008260;28;20041;-59
2023/04/14 11:36:05;;;;;;;3.00;0.90;;;;;;;10.97;47.11;96421.53;5018549;28;20049;-59
2023/04/14 11:38:34;;;;;;;5.10;0.90;;;;;;;10.99;46.66;96424.75;5024766;28;20072;-59
2023/04/14 11:41:01;;;;;;;5.90;1.08;;;;;;;11.06;48.11;96419.06;5025501;28;20512;-58
2023/04/14 11:43:31;;;;;;;4.75;1.52;;;;;;;10.96;46.58;96419.91;5007720;28;20044;-61
2023/04/14 11:46:02;;;;;;;3.03;1.30;;;;;;;10.77;45.67;96404.28;5025134;28;20080;-58
2023/04/14 11:48:29;;;;;;;2.65;0.80;;;;;;;10.64;46.45;96408.41;5023403;28;20049;-57
2023/04/14 11:51:01;;;;;;;4.57;1.15;;;;;;;10.60;46.78;96410.03;5017628;28;20047;-60